Hicksville, OH

9:39 PM EDT on July 27, 2015 (GMT -0400)
Hicksville | | Change Station
CLOSE
Current Station
Personal Weather Station
Location: Hicksville, OH
Elevation: 774 ft
Nearby Weather Stations

Elev 774 ft 41.30 °N, 84.76 °W | Updated 11 minutes ago

Clear
Clear
77.2 °F
Feels Like 79 °F
N
0.0
Wind Variable Wind from NNE

Today
High -- | Low -- °F
--% Chance of Precip.
Yesterday
High -- | Low -- °F
Precip. -- in
6:29 AM 9:01 PM
Waxing Gibbous, 86% visible
Pressure 29.99 in
Visibility 10.0 miles
Clouds Clear
Heat Index 79 °F
Dew Point 65 °F
Humidity 67%
Rainfall 0.00 in
Snow Depth Not available.
UV 0 out of 12
Pollen 6.10 out of 12
Air Quality Not available.
Flu Activity Not available.
METAR KDFI 280053Z AUTO 05004KT 10SM CLR 27/17 A3000 RMK AO2 SLP155 T02670167

More Conditions Fewer Conditions

Pressure 29.99 in
Visibility 10.0 miles
Clouds Clear
Heat Index 79 °F
Dew Point 65 °F
Humidity 67%
Rainfall 0.00 in
Snow Depth Not available.
UV 0 out of 12
Pollen 6.10 out of 12
Air Quality Not available.
Flu Activity Not available.
METAR KDFI 280053Z AUTO 05004KT 10SM CLR 27/17 A3000 RMK AO2 SLP155 T02670167

More Conditions Fewer Conditions

10-Day Weather Forecast

×

Almanac

Astronomy

Jul. 27, 2015 Rise Set
Actual Time
Civil Twilight
Nautical Twilight
Astronomical Twilight
Moon
Length of Visible Light
Length of Day
Tomorrow will be .
, % of the Moon is Illuminated

Today's Extremes

State Highs State Lows

Community

WunderPhotos

Upload Photos

1,841,757 photos uploaded!

WunderBlogs® & News

Nearby

Air Quality

  Air Quality AQ Index Pollutant
Not available.

Snow Depth

Station Depth Elevation

Earthquake Activity

City Distance Mag. Time & Date
Minimum magnitude displayed is 2.5.

Coastal Water Temperatures

Place Temperature

Stations

Nearby Weather Stations

Station Location Temp. Windchill Dew Point Humidity Wind Precip. Elev Updated Type